sensor_id;sensor_type;location;lat;lon;timestamp;P1;durP1;ratioP1;P2;durP2;ratioP2
46757;SDS011;32509;47.750;-3.396;2023-08-07T00:00:36;6.20;;;2.13;;
46757;SDS011;32509;47.750;-3.396;2023-08-07T00:03:02;7.90;;;2.67;;
46757;SDS011;32509;47.750;-3.396;2023-08-07T00:05:28;6.95;;;2.17;;
46757;SDS011;32509;47.750;-3.396;2023-08-07T00:07:55;9.00;;;2.97;;
46757;SDS011;32509;47.750;-3.396;2023-08-07T00:10:20;8.93;;;2.40;;
46757;SDS011;32509;47.750;-3.396;2023-08-07T00:12:46;9.45;;;3.50;;
46757;SDS011;32509;47.750;-3.396;2023-08-07T00:15:12;2.90;;;1.63;;
46757;SDS011;32509;47.750;-3.396;2023-08-07T00:17:38;9.85;;;3.13;;
46757;SDS011;32509;47.750;-3.396;2023-08-07T00:20:04;4.70;;;1.85;;
46757;SDS011;32509;47.750;-3.396;2023-08-07T00:22:30;6.00;;;2.15;;
46757;SDS011;32509;47.750;-3.396;2023-08-07T00:24:56;5.00;;;2.15;;
46757;SDS011;32509;47.750;-3.396;2023-08-07T00:27:21;6.60;;;3.22;;
46757;SDS011;32509;47.750;-3.396;2023-08-07T00:29:47;7.00;;;2.30;;
46757;SDS011;32509;47.750;-3.396;2023-08-07T00:32:13;6.00;;;1.73;;
46757;SDS011;32509;47.750;-3.396;2023-08-07T00:34:39;3.08;;;1.70;;
46757;SDS011;32509;47.750;-3.396;2023-08-07T00:37:05;4.43;;;2.20;;
46757;SDS011;32509;47.750;-3.396;2023-08-07T00:39:30;6.00;;;2.10;;
46757;SDS011;32509;47.750;-3.396;2023-08-07T00:41:56;4.38;;;2.33;;
46757;SDS011;32509;47.750;-3.396;2023-08-07T00:44:22;6.50;;;2.75;;
46757;SDS011;32509;47.750;-3.396;2023-08-07T00:46:48;3.95;;;1.88;;
46757;SDS011;32509;47.750;-3.396;2023-08-07T00:49:14;7.35;;;1.85;;
46757;SDS011;32509;47.750;-3.396;2023-08-07T00:51:43;4.00;;;1.85;;
46757;SDS011;32509;47.750;-3.396;2023-08-07T00:54:10;7.70;;;2.35;;
46757;SDS011;32509;47.750;-3.396;2023-08-07T00:56:39;4.93;;;2.15;;
46757;SDS011;32509;47.750;-3.396;2023-08-07T00:59:05;6.07;;;1.88;;
46757;SDS011;32509;47.750;-3.396;2023-08-07T01:01:31;5.50;;;2.05;;
46757;SDS011;32509;47.750;-3.396;2023-08-07T01:03:57;6.45;;;2.63;;
46757;SDS011;32509;47.750;-3.396;2023-08-07T01:06:23;6.30;;;2.17;;
46757;SDS011;32509;47.750;-3.396;2023-08-07T01:08:49;8.15;;;3.15;;
46757;SDS011;32509;47.750;-3.396;2023-08-07T01:17:16;5.43;;;1.63;;
46757;SDS011;32509;47.750;-3.396;2023-08-07T01:19:44;4.00;;;2.20;;
46757;SDS011;32509;47.750;-3.396;2023-08-07T01:22:13;2.85;;;1.83;;
46757;SDS011;32509;47.750;-3.396;2023-08-07T01:24:43;3.85;;;2.20;;
46757;SDS011;32509;47.750;-3.396;2023-08-07T01:35:42;4.30;;;2.20;;
46757;SDS011;32509;47.750;-3.396;2023-08-07T01:38:11;2.60;;;1.65;;
46757;SDS011;32509;47.750;-3.396;2023-08-07T01:40:40;5.30;;;1.90;;
46757;SDS011;32509;47.750;-3.396;2023-08-07T01:43:08;5.38;;;1.98;;
46757;SDS011;32509;47.750;-3.396;2023-08-07T01:45:34;4.50;;;2.17;;
46757;SDS011;32509;47.750;-3.396;2023-08-07T01:48:00;10.55;;;3.33;;
46757;SDS011;32509;47.750;-3.396;2023-08-07T01:50:27;6.63;;;3.10;;
46757;SDS011;32509;47.750;-3.396;2023-08-07T01:52:53;4.18;;;2.13;;
46757;SDS011;32509;47.750;-3.396;2023-08-07T01:55:19;6.63;;;2.75;;
46757;SDS011;32509;47.750;-3.396;2023-08-07T01:57:45;5.45;;;3.08;;
46757;SDS011;32509;47.750;-3.396;2023-08-07T02:00:11;4.97;;;1.92;;
46757;SDS011;32509;47.750;-3.396;2023-08-07T02:02:37;11.70;;;2.92;;
46757;SDS011;32509;47.750;-3.396;2023-08-07T02:05:03;3.25;;;1.73;;
46757;SDS011;32509;47.750;-3.396;2023-08-07T02:07:29;8.48;;;2.40;;
46757;SDS011;32509;47.750;-3.396;2023-08-07T02:09:56;5.63;;;2.30;;
46757;SDS011;32509;47.750;-3.396;2023-08-07T02:12:22;3.33;;;1.70;;
46757;SDS011;32509;47.750;-3.396;2023-08-07T02:14:48;4.85;;;2.30;;
46757;SDS011;32509;47.750;-3.396;2023-08-07T02:17:13;4.38;;;1.88;;
46757;SDS011;32509;47.750;-3.396;2023-08-07T02:19:39;4.55;;;2.28;;
46757;SDS011;32509;47.750;-3.396;2023-08-07T02:22:05;2.47;;;1.80;;
46757;SDS011;32509;47.750;-3.396;2023-08-07T02:24:31;6.63;;;2.08;;
46757;SDS011;32509;47.750;-3.396;2023-08-07T02:26:57;7.70;;;2.20;;
46757;SDS011;32509;47.750;-3.396;2023-08-07T02:29:23;6.93;;;1.92;;
46757;SDS011;32509;47.750;-3.396;2023-08-07T02:31:49;5.68;;;1.95;;
46757;SDS011;32509;47.750;-3.396;2023-08-07T02:34:14;5.78;;;1.90;;
46757;SDS011;32509;47.750;-3.396;2023-08-07T02:36:40;6.20;;;1.98;;
46757;SDS011;32509;47.750;-3.396;2023-08-07T02:39:06;3.72;;;1.95;;
46757;SDS011;32509;47.750;-3.396;2023-08-07T02:41:32;3.70;;;2.00;;
46757;SDS011;32509;47.750;-3.396;2023-08-07T02:43:58;4.72;;;1.90;;
46757;SDS011;32509;47.750;-3.396;2023-08-07T02:46:24;5.60;;;2.05;;
46757;SDS011;32509;47.750;-3.396;2023-08-07T02:48:49;7.38;;;2.92;;
46757;SDS011;32509;47.750;-3.396;2023-08-07T02:51:15;6.80;;;4.45;;
46757;SDS011;32509;47.750;-3.396;2023-08-07T02:53:41;6.22;;;2.70;;
46757;SDS011;32509;47.750;-3.396;2023-08-07T02:56:06;4.18;;;2.47;;
46757;SDS011;32509;47.750;-3.396;2023-08-07T02:58:32;4.70;;;2.95;;
46757;SDS011;32509;47.750;-3.396;2023-08-07T03:01:04;5.80;;;4.18;;
46757;SDS011;32509;47.750;-3.396;2023-08-07T03:03:33;8.48;;;3.78;;
46757;SDS011;32509;47.750;-3.396;2023-08-07T03:05:59;5.40;;;2.90;;
46757;SDS011;32509;47.750;-3.396;2023-08-07T03:08:25;4.80;;;2.92;;
46757;SDS011;32509;47.750;-3.396;2023-08-07T03:10:52;9.65;;;3.50;;
46757;SDS011;32509;47.750;-3.396;2023-08-07T03:13:20;6.10;;;3.60;;
46757;SDS011;32509;47.750;-3.396;2023-08-07T03:15:47;6.95;;;3.97;;
46757;SDS011;32509;47.750;-3.396;2023-08-07T03:18:15;9.55;;;3.80;;
46757;SDS011;32509;47.750;-3.396;2023-08-07T03:20:44;5.35;;;3.15;;
46757;SDS011;32509;47.750;-3.396;2023-08-07T03:23:10;7.63;;;3.60;;
46757;SDS011;32509;47.750;-3.396;2023-08-07T03:25:36;7.70;;;3.20;;
46757;SDS011;32509;47.750;-3.396;2023-08-07T03:28:01;6.05;;;3.58;;
46757;SDS011;32509;47.750;-3.396;2023-08-07T03:30:28;8.85;;;3.75;;
46757;SDS011;32509;47.750;-3.396;2023-08-07T03:32:55;6.38;;;2.92;;
46757;SDS011;32509;47.750;-3.396;2023-08-07T03:35:21;5.05;;;3.50;;
46757;SDS011;32509;47.750;-3.396;2023-08-07T03:37:46;5.53;;;3.20;;
46757;SDS011;32509;47.750;-3.396;2023-08-07T03:40:12;6.07;;;3.53;;
46757;SDS011;32509;47.750;-3.396;2023-08-07T03:42:38;3.50;;;3.20;;
46757;SDS011;32509;47.750;-3.396;2023-08-07T03:45:04;6.45;;;3.20;;
46757;SDS011;32509;47.750;-3.396;2023-08-07T03:47:30;6.97;;;3.45;;
46757;SDS011;32509;47.750;-3.396;2023-08-07T03:49:55;5.45;;;4.20;;
46757;SDS011;32509;47.750;-3.396;2023-08-07T03:52:21;7.28;;;3.90;;
46757;SDS011;32509;47.750;-3.396;2023-08-07T03:54:47;5.72;;;3.20;;
46757;SDS011;32509;47.750;-3.396;2023-08-07T03:57:12;7.57;;;3.15;;
46757;SDS011;32509;47.750;-3.396;2023-08-07T03:59:38;10.93;;;3.40;;
46757;SDS011;32509;47.750;-3.396;2023-08-07T04:02:04;5.63;;;2.92;;
46757;SDS011;32509;47.750;-3.396;2023-08-07T04:04:30;5.95;;;2.95;;
46757;SDS011;32509;47.750;-3.396;2023-08-07T04:06:55;4.97;;;2.85;;
46757;SDS011;32509;47.750;-3.396;2023-08-07T04:09:21;6.53;;;3.33;;
46757;SDS011;32509;47.750;-3.396;2023-08-07T04:11:47;5.70;;;3.42;;
46757;SDS011;32509;47.750;-3.396;2023-08-07T04:14:13;5.25;;;3.03;;
46757;SDS011;32509;47.750;-3.396;2023-08-07T04:16:38;3.83;;;2.10;;
46757;SDS011;32509;47.750;-3.396;2023-08-07T04:19:04;4.70;;;2.95;;
46757;SDS011;32509;47.750;-3.396;2023-08-07T04:21:32;3.80;;;2.85;;
46757;SDS011;32509;47.750;-3.396;2023-08-07T04:23:58;5.60;;;3.53;;
46757;SDS011;32509;47.750;-3.396;2023-08-07T04:26:33;7.15;;;2.90;;
46757;SDS011;32509;47.750;-3.396;2023-08-07T04:28:59;6.13;;;3.20;;
46757;SDS011;32509;47.750;-3.396;2023-08-07T04:31:25;9.40;;;3.90;;
46757;SDS011;32509;47.750;-3.396;2023-08-07T04:33:50;4.45;;;3.33;;
46757;SDS011;32509;47.750;-3.396;2023-08-07T04:36:16;5.47;;;3.85;;
46757;SDS011;32509;47.750;-3.396;2023-08-07T04:38:42;7.63;;;2.72;;
46757;SDS011;32509;47.750;-3.396;2023-08-07T04:41:08;7.03;;;3.05;;
46757;SDS011;32509;47.750;-3.396;2023-08-07T04:43:33;4.55;;;2.88;;
46757;SDS011;32509;47.750;-3.396;2023-08-07T04:45:59;4.15;;;3.33;;
46757;SDS011;32509;47.750;-3.396;2023-08-07T04:48:25;4.63;;;3.10;;
46757;SDS011;32509;47.750;-3.396;2023-08-07T04:50:51;5.38;;;3.15;;
46757;SDS011;32509;47.750;-3.396;2023-08-07T04:53:17;5.43;;;4.03;;
46757;SDS011;32509;47.750;-3.396;2023-08-07T04:55:43;4.40;;;2.90;;
46757;SDS011;32509;47.750;-3.396;2023-08-07T04:58:08;6.18;;;3.13;;
46757;SDS011;32509;47.750;-3.396;2023-08-07T05:00:35;6.00;;;3.70;;
46757;SDS011;32509;47.750;-3.396;2023-08-07T05:03:01;8.48;;;3.22;;
46757;SDS011;32509;47.750;-3.396;2023-08-07T05:05:27;7.35;;;3.53;;
46757;SDS011;32509;47.750;-3.396;2023-08-07T05:07:54;7.32;;;3.45;;
46757;SDS011;32509;47.750;-3.396;2023-08-07T05:10:20;7.20;;;4.32;;
46757;SDS011;32509;47.750;-3.396;2023-08-07T05:12:46;5.82;;;4.22;;
46757;SDS011;32509;47.750;-3.396;2023-08-07T05:15:12;4.78;;;3.20;;
46757;SDS011;32509;47.750;-3.396;2023-08-07T05:17:38;5.78;;;3.85;;
46757;SDS011;32509;47.750;-3.396;2023-08-07T05:20:03;5.93;;;3.63;;
46757;SDS011;32509;47.750;-3.396;2023-08-07T05:22:30;4.68;;;3.58;;
46757;SDS011;32509;47.750;-3.396;2023-08-07T05:24:56;5.18;;;3.13;;
46757;SDS011;32509;47.750;-3.396;2023-08-07T05:27:22;4.20;;;3.28;;
46757;SDS011;32509;47.750;-3.396;2023-08-07T05:29:48;5.15;;;3.13;;
46757;SDS011;32509;47.750;-3.396;2023-08-07T05:32:14;7.20;;;3.22;;
46757;SDS011;32509;47.750;-3.396;2023-08-07T05:34:40;6.85;;;4.88;;
46757;SDS011;32509;47.750;-3.396;2023-08-07T05:37:07;7.60;;;3.17;;
46757;SDS011;32509;47.750;-3.396;2023-08-07T05:39:33;4.53;;;2.95;;
46757;SDS011;32509;47.750;-3.396;2023-08-07T05:41:59;8.77;;;3.60;;
46757;SDS011;32509;47.750;-3.396;2023-08-07T05:44:25;6.40;;;3.90;;
46757;SDS011;32509;47.750;-3.396;2023-08-07T05:46:51;9.10;;;3.63;;
46757;SDS011;32509;47.750;-3.396;2023-08-07T05:49:17;8.02;;;3.45;;
46757;SDS011;32509;47.750;-3.396;2023-08-07T05:51:43;6.55;;;3.30;;
46757;SDS011;32509;47.750;-3.396;2023-08-07T05:54:09;7.28;;;4.03;;
46757;SDS011;32509;47.750;-3.396;2023-08-07T05:56:36;8.52;;;3.25;;
46757;SDS011;32509;47.750;-3.396;2023-08-07T05:59:02;5.35;;;3.72;;
46757;SDS011;32509;47.750;-3.396;2023-08-07T06:01:28;5.82;;;3.33;;
46757;SDS011;32509;47.750;-3.396;2023-08-07T06:03:57;15.57;;;4.22;;
46757;SDS011;32509;47.750;-3.396;2023-08-07T06:06:24;4.25;;;2.70;;
46757;SDS011;32509;47.750;-3.396;2023-08-07T06:08:51;5.15;;;3.10;;
46757;SDS011;32509;47.750;-3.396;2023-08-07T06:11:17;8.38;;;3.40;;
46757;SDS011;32509;47.750;-3.396;2023-08-07T06:13:42;6.53;;;4.07;;
46757;SDS011;32509;47.750;-3.396;2023-08-07T06:16:08;5.07;;;3.20;;
46757;SDS011;32509;47.750;-3.396;2023-08-07T06:18:34;5.72;;;3.35;;
46757;SDS011;32509;47.750;-3.396;2023-08-07T06:21:01;6.07;;;3.42;;
46757;SDS011;32509;47.750;-3.396;2023-08-07T06:23:27;7.10;;;3.58;;
46757;SDS011;32509;47.750;-3.396;2023-08-07T06:25:52;5.82;;;3.67;;
46757;SDS011;32509;47.750;-3.396;2023-08-07T06:28:18;5.15;;;3.15;;
46757;SDS011;32509;47.750;-3.396;2023-08-07T06:30:44;5.95;;;3.35;;
46757;SDS011;32509;47.750;-3.396;2023-08-07T06:33:10;5.38;;;3.28;;
46757;SDS011;32509;47.750;-3.396;2023-08-07T06:35:39;6.68;;;3.92;;
46757;SDS011;32509;47.750;-3.396;2023-08-07T06:38:05;6.10;;;3.83;;
46757;SDS011;32509;47.750;-3.396;2023-08-07T06:40:31;4.80;;;3.40;;
46757;SDS011;32509;47.750;-3.396;2023-08-07T06:42:57;5.18;;;3.38;;
46757;SDS011;32509;47.750;-3.396;2023-08-07T06:45:23;3.78;;;3.15;;
46757;SDS011;32509;47.750;-3.396;2023-08-07T06:47:48;5.63;;;3.55;;
46757;SDS011;32509;47.750;-3.396;2023-08-07T06:50:14;5.65;;;3.20;;
46757;SDS011;32509;47.750;-3.396;2023-08-07T06:52:40;6.10;;;3.55;;
46757;SDS011;32509;47.750;-3.396;2023-08-07T06:55:06;5.85;;;3.55;;
46757;SDS011;32509;47.750;-3.396;2023-08-07T06:57:35;5.93;;;3.50;;
46757;SDS011;32509;47.750;-3.396;2023-08-07T07:00:04;6.28;;;3.42;;
46757;SDS011;32509;47.750;-3.396;2023-08-07T07:02:32;5.30;;;3.38;;
46757;SDS011;32509;47.750;-3.396;2023-08-07T07:04:58;5.38;;;3.47;;
46757;SDS011;32509;47.750;-3.396;2023-08-07T07:07:25;6.25;;;3.83;;
46757;SDS011;32509;47.750;-3.396;2023-08-07T07:09:50;4.82;;;3.80;;
46757;SDS011;32509;47.750;-3.396;2023-08-07T07:12:16;7.43;;;4.38;;
46757;SDS011;32509;47.750;-3.396;2023-08-07T07:14:42;4.97;;;3.35;;
46757;SDS011;32509;47.750;-3.396;2023-08-07T07:17:08;6.47;;;3.38;;
46757;SDS011;32509;47.750;-3.396;2023-08-07T07:19:33;8.00;;;4.55;;
46757;SDS011;32509;47.750;-3.396;2023-08-07T07:21:59;3.70;;;3.40;;
46757;SDS011;32509;47.750;-3.396;2023-08-07T07:24:27;5.68;;;3.50;;
46757;SDS011;32509;47.750;-3.396;2023-08-07T07:26:53;4.10;;;3.08;;
46757;SDS011;32509;47.750;-3.396;2023-08-07T07:29:19;4.18;;;3.25;;
46757;SDS011;32509;47.750;-3.396;2023-08-07T07:31:49;4.50;;;2.97;;
46757;SDS011;32509;47.750;-3.396;2023-08-07T07:34:15;5.80;;;2.92;;
46757;SDS011;32509;47.750;-3.396;2023-08-07T07:36:41;3.83;;;3.45;;
46757;SDS011;32509;47.750;-3.396;2023-08-07T07:39:06;6.38;;;3.67;;
46757;SDS011;32509;47.750;-3.396;2023-08-07T07:41:32;5.68;;;3.35;;
46757;SDS011;32509;47.750;-3.396;2023-08-07T07:43:58;4.05;;;2.75;;
46757;SDS011;32509;47.750;-3.396;2023-08-07T07:46:27;12.20;;;4.20;;
46757;SDS011;32509;47.750;-3.396;2023-08-07T07:48:53;7.35;;;3.53;;
46757;SDS011;32509;47.750;-3.396;2023-08-07T07:51:20;4.53;;;3.10;;
46757;SDS011;32509;47.750;-3.396;2023-08-07T07:53:46;6.07;;;3.08;;
46757;SDS011;32509;47.750;-3.396;2023-08-07T07:56:12;6.18;;;3.20;;
46757;SDS011;32509;47.750;-3.396;2023-08-07T07:58:38;4.75;;;3.45;;
46757;SDS011;32509;47.750;-3.396;2023-08-07T08:01:06;5.20;;;3.80;;
46757;SDS011;32509;47.750;-3.396;2023-08-07T08:03:35;6.63;;;3.78;;
46757;SDS011;32509;47.750;-3.396;2023-08-07T08:06:01;4.05;;;2.90;;
46757;SDS011;32509;47.750;-3.396;2023-08-07T08:08:27;6.28;;;3.45;;
46757;SDS011;32509;47.750;-3.396;2023-08-07T08:10:52;5.90;;;3.88;;
46757;SDS011;32509;47.750;-3.396;2023-08-07T08:13:18;4.90;;;2.80;;
46757;SDS011;32509;47.750;-3.396;2023-08-07T08:15:44;3.80;;;3.17;;
46757;SDS011;32509;47.750;-3.396;2023-08-07T08:18:11;5.35;;;3.35;;
46757;SDS011;32509;47.750;-3.396;2023-08-07T08:20:38;4.90;;;3.28;;
46757;SDS011;32509;47.750;-3.396;2023-08-07T08:23:04;5.63;;;3.25;;
46757;SDS011;32509;47.750;-3.396;2023-08-07T08:25:33;6.60;;;3.20;;
46757;SDS011;32509;47.750;-3.396;2023-08-07T08:27:59;4.88;;;3.20;;
46757;SDS011;32509;47.750;-3.396;2023-08-07T08:30:25;3.13;;;2.78;;
46757;SDS011;32509;47.750;-3.396;2023-08-07T08:32:51;4.70;;;3.00;;
46757;SDS011;32509;47.750;-3.396;2023-08-07T08:35:17;4.30;;;3.40;;
46757;SDS011;32509;47.750;-3.396;2023-08-07T08:37:43;5.03;;;3.10;;
46757;SDS011;32509;47.750;-3.396;2023-08-07T08:40:09;5.57;;;3.15;;
46757;SDS011;32509;47.750;-3.396;2023-08-07T08:42:42;5.95;;;3.33;;
46757;SDS011;32509;47.750;-3.396;2023-08-07T08:45:10;7.43;;;3.67;;
46757;SDS011;32509;47.750;-3.396;2023-08-07T08:47:38;4.20;;;2.50;;
46757;SDS011;32509;47.750;-3.396;2023-08-07T08:50:09;3.50;;;2.95;;
46757;SDS011;32509;47.750;-3.396;2023-08-07T08:52:43;3.47;;;2.65;;
46757;SDS011;32509;47.750;-3.396;2023-08-07T08:55:10;4.20;;;3.00;;
46757;SDS011;32509;47.750;-3.396;2023-08-07T08:57:38;5.30;;;3.25;;
46757;SDS011;32509;47.750;-3.396;2023-08-07T09:00:05;4.50;;;2.85;;
46757;SDS011;32509;47.750;-3.396;2023-08-07T09:02:46;4.00;;;2.67;;
46757;SDS011;32509;47.750;-3.396;2023-08-07T09:05:16;5.88;;;2.72;;
46757;SDS011;32509;47.750;-3.396;2023-08-07T09:07:43;5.07;;;2.58;;
46757;SDS011;32509;47.750;-3.396;2023-08-07T09:10:11;3.45;;;2.63;;
46757;SDS011;32509;47.750;-3.396;2023-08-07T09:12:42;4.75;;;2.67;;
46757;SDS011;32509;47.750;-3.396;2023-08-07T09:15:32;3.05;;;2.65;;
46757;SDS011;32509;47.750;-3.396;2023-08-07T09:17:58;5.63;;;2.42;;
46757;SDS011;32509;47.750;-3.396;2023-08-07T09:20:24;4.35;;;3.10;;
46757;SDS011;32509;47.750;-3.396;2023-08-07T09:22:50;6.95;;;2.33;;
46757;SDS011;32509;47.750;-3.396;2023-08-07T09:25:37;3.55;;;2.38;;
46757;SDS011;32509;47.750;-3.396;2023-08-07T09:28:04;3.22;;;2.92;;
46757;SDS011;32509;47.750;-3.396;2023-08-07T09:30:30;4.10;;;3.10;;
46757;SDS011;32509;47.750;-3.396;2023-08-07T09:33:06;5.00;;;2.95;;
46757;SDS011;32509;47.750;-3.396;2023-08-07T09:35:31;3.70;;;2.22;;
46757;SDS011;32509;47.750;-3.396;2023-08-07T09:37:58;2.83;;;2.28;;
46757;SDS011;32509;47.750;-3.396;2023-08-07T09:40:24;3.20;;;2.38;;
46757;SDS011;32509;47.750;-3.396;2023-08-07T09:42:50;5.18;;;2.47;;
46757;SDS011;32509;47.750;-3.396;2023-08-07T12:30:49;5.32;;;1.88;;
46757;SDS011;32509;47.750;-3.396;2023-08-07T12:33:19;2.17;;;1.20;;
46757;SDS011;32509;47.750;-3.396;2023-08-07T12:35:45;1.98;;;1.50;;
46757;SDS011;32509;47.750;-3.396;2023-08-07T12:38:11;5.07;;;1.48;;
46757;SDS011;32509;47.750;-3.396;2023-08-07T12:40:40;1.88;;;1.08;;
46757;SDS011;32509;47.750;-3.396;2023-08-07T12:43:06;3.13;;;1.15;;
46757;SDS011;32509;47.750;-3.396;2023-08-07T12:45:32;1.73;;;1.42;;
46757;SDS011;32509;47.750;-3.396;2023-08-07T12:47:59;1.58;;;1.30;;
46757;SDS011;32509;47.750;-3.396;2023-08-07T12:50:25;2.95;;;1.40;;
46757;SDS011;32509;47.750;-3.396;2023-08-07T12:52:51;1.40;;;0.90;;
46757;SDS011;32509;47.750;-3.396;2023-08-07T12:55:17;0.85;;;0.80;;
46757;SDS011;32509;47.750;-3.396;2023-08-07T12:57:43;2.42;;;1.60;;
46757;SDS011;32509;47.750;-3.396;2023-08-07T13:00:10;2.75;;;1.40;;
46757;SDS011;32509;47.750;-3.396;2023-08-07T13:02:43;1.05;;;0.70;;
46757;SDS011;32509;47.750;-3.396;2023-08-07T13:05:10;3.00;;;1.10;;
46757;SDS011;32509;47.750;-3.396;2023-08-07T13:07:37;1.35;;;1.20;;
46757;SDS011;32509;47.750;-3.396;2023-08-07T13:10:06;5.55;;;1.20;;
46757;SDS011;32509;47.750;-3.396;2023-08-07T13:12:34;1.65;;;1.00;;
46757;SDS011;32509;47.750;-3.396;2023-08-07T13:15:01;3.88;;;1.70;;
46757;SDS011;32509;47.750;-3.396;2023-08-07T13:17:30;6.03;;;2.13;;
46757;SDS011;32509;47.750;-3.396;2023-08-07T13:19:57;3.17;;;1.33;;
46757;SDS011;32509;47.750;-3.396;2023-08-07T13:22:24;2.00;;;1.23;;
46757;SDS011;32509;47.750;-3.396;2023-08-07T13:24:50;1.90;;;1.10;;
46757;SDS011;32509;47.750;-3.396;2023-08-07T13:27:15;1.88;;;1.60;;
46757;SDS011;32509;47.750;-3.396;2023-08-07T13:29:41;5.10;;;1.95;;
46757;SDS011;32509;47.750;-3.396;2023-08-07T13:32:07;2.60;;;1.52;;
46757;SDS011;32509;47.750;-3.396;2023-08-07T13:34:36;1.85;;;1.05;;
46757;SDS011;32509;47.750;-3.396;2023-08-07T13:37:02;1.95;;;1.25;;
46757;SDS011;32509;47.750;-3.396;2023-08-07T13:39:32;2.85;;;2.30;;
46757;SDS011;32509;47.750;-3.396;2023-08-07T13:41:58;2.47;;;1.30;;
46757;SDS011;32509;47.750;-3.396;2023-08-07T13:44:25;1.23;;;1.13;;
46757;SDS011;32509;47.750;-3.396;2023-08-07T13:46:51;3.60;;;1.13;;
46757;SDS011;32509;47.750;-3.396;2023-08-07T13:49:17;2.10;;;1.52;;
46757;SDS011;32509;47.750;-3.396;2023-08-07T13:51:42;1.60;;;1.50;;
46757;SDS011;32509;47.750;-3.396;2023-08-07T13:54:09;1.33;;;1.17;;
46757;SDS011;32509;47.750;-3.396;2023-08-07T13:56:35;3.30;;;1.42;;
46757;SDS011;32509;47.750;-3.396;2023-08-07T13:59:01;2.72;;;1.25;;
46757;SDS011;32509;47.750;-3.396;2023-08-07T14:01:26;1.88;;;1.10;;
46757;SDS011;32509;47.750;-3.396;2023-08-07T14:03:55;1.25;;;1.15;;
46757;SDS011;32509;47.750;-3.396;2023-08-07T14:06:21;1.52;;;1.17;;
46757;SDS011;32509;47.750;-3.396;2023-08-07T14:08:46;1.75;;;1.65;;
46757;SDS011;32509;47.750;-3.396;2023-08-07T14:11:12;3.20;;;1.00;;
46757;SDS011;32509;47.750;-3.396;2023-08-07T14:13:40;3.03;;;1.00;;
46757;SDS011;32509;47.750;-3.396;2023-08-07T14:16:06;2.88;;;0.85;;
46757;SDS011;32509;47.750;-3.396;2023-08-07T14:18:32;4.18;;;1.48;;
46757;SDS011;32509;47.750;-3.396;2023-08-07T14:20:59;4.93;;;1.27;;
46757;SDS011;32509;47.750;-3.396;2023-08-07T14:23:24;3.28;;;1.02;;
46757;SDS011;32509;47.750;-3.396;2023-08-07T14:25:50;3.13;;;1.20;;
46757;SDS011;32509;47.750;-3.396;2023-08-07T14:28:18;2.67;;;1.15;;
46757;SDS011;32509;47.750;-3.396;2023-08-07T14:30:44;3.28;;;1.35;;
46757;SDS011;32509;47.750;-3.396;2023-08-07T14:33:10;1.73;;;0.75;;
46757;SDS011;32509;47.750;-3.396;2023-08-07T14:35:36;2.75;;;1.10;;
46757;SDS011;32509;47.750;-3.396;2023-08-07T14:38:01;3.20;;;1.20;;
46757;SDS011;32509;47.750;-3.396;2023-08-07T14:40:27;2.50;;;1.55;;
46757;SDS011;32509;47.750;-3.396;2023-08-07T14:42:53;5.70;;;1.10;;
46757;SDS011;32509;47.750;-3.396;2023-08-07T14:45:22;1.50;;;1.00;;
46757;SDS011;32509;47.750;-3.396;2023-08-07T14:47:49;2.17;;;0.90;;
46757;SDS011;32509;47.750;-3.396;2023-08-07T14:50:15;1.33;;;0.80;;
46757;SDS011;32509;47.750;-3.396;2023-08-07T14:52:44;3.33;;;1.00;;
46757;SDS011;32509;47.750;-3.396;2023-08-07T14:55:10;1.38;;;0.90;;
46757;SDS011;32509;47.750;-3.396;2023-08-07T14:57:36;3.13;;;1.23;;
46757;SDS011;32509;47.750;-3.396;2023-08-07T15:00:01;1.35;;;0.88;;
46757;SDS011;32509;47.750;-3.396;2023-08-07T15:02:29;1.92;;;0.93;;
46757;SDS011;32509;47.750;-3.396;2023-08-07T15:04:55;3.75;;;1.30;;
46757;SDS011;32509;47.750;-3.396;2023-08-07T15:07:20;3.03;;;1.20;;
46757;SDS011;32509;47.750;-3.396;2023-08-07T15:09:46;2.88;;;1.00;;
46757;SDS011;32509;47.750;-3.396;2023-08-07T15:12:15;2.42;;;0.82;;
46757;SDS011;32509;47.750;-3.396;2023-08-07T15:14:44;3.15;;;1.30;;
46757;SDS011;32509;47.750;-3.396;2023-08-07T15:17:10;1.75;;;1.08;;
46757;SDS011;32509;47.750;-3.396;2023-08-07T15:19:36;1.45;;;1.00;;
46757;SDS011;32509;47.750;-3.396;2023-08-07T15:22:02;2.70;;;1.13;;
46757;SDS011;32509;47.750;-3.396;2023-08-07T15:24:28;2.25;;;1.20;;
46757;SDS011;32509;47.750;-3.396;2023-08-07T15:26:53;1.65;;;1.20;;
46757;SDS011;32509;47.750;-3.396;2023-08-07T15:29:19;2.25;;;1.05;;
46757;SDS011;32509;47.750;-3.396;2023-08-07T15:31:45;0.70;;;0.65;;
46757;SDS011;32509;47.750;-3.396;2023-08-07T15:34:11;3.25;;;1.50;;
46757;SDS011;32509;47.750;-3.396;2023-08-07T15:36:36;0.73;;;0.73;;
46757;SDS011;32509;47.750;-3.396;2023-08-07T15:39:02;1.80;;;1.02;;
46757;SDS011;32509;47.750;-3.396;2023-08-07T15:41:28;5.13;;;1.20;;
46757;SDS011;32509;47.750;-3.396;2023-08-07T15:43:54;2.10;;;1.00;;
46757;SDS011;32509;47.750;-3.396;2023-08-07T15:46:19;2.53;;;0.90;;
46757;SDS011;32509;47.750;-3.396;2023-08-07T15:48:45;3.97;;;1.40;;
46757;SDS011;32509;47.750;-3.396;2023-08-07T15:51:11;0.75;;;0.70;;
46757;SDS011;32509;47.750;-3.396;2023-08-07T15:53:37;2.47;;;1.00;;
46757;SDS011;32509;47.750;-3.396;2023-08-07T15:56:02;1.40;;;1.08;;
46757;SDS011;32509;47.750;-3.396;2023-08-07T15:58:28;3.40;;;1.05;;
46757;SDS011;32509;47.750;-3.396;2023-08-07T16:00:54;2.13;;;0.98;;
46757;SDS011;32509;47.750;-3.396;2023-08-07T16:03:20;2.35;;;1.00;;
46757;SDS011;32509;47.750;-3.396;2023-08-07T16:05:47;2.55;;;1.40;;
46757;SDS011;32509;47.750;-3.396;2023-08-07T16:08:13;2.53;;;1.77;;
46757;SDS011;32509;47.750;-3.396;2023-08-07T16:10:40;3.75;;;1.20;;
46757;SDS011;32509;47.750;-3.396;2023-08-07T16:13:06;1.80;;;1.65;;
46757;SDS011;32509;47.750;-3.396;2023-08-07T16:15:32;1.45;;;1.17;;
46757;SDS011;32509;47.750;-3.396;2023-08-07T16:17:59;4.40;;;1.35;;
46757;SDS011;32509;47.750;-3.396;2023-08-07T16:20:26;1.50;;;1.33;;
46757;SDS011;32509;47.750;-3.396;2023-08-07T16:22:53;2.22;;;1.40;;
46757;SDS011;32509;47.750;-3.396;2023-08-07T16:25:19;1.42;;;1.33;;
46757;SDS011;32509;47.750;-3.396;2023-08-07T16:27:45;2.10;;;1.55;;
46757;SDS011;32509;47.750;-3.396;2023-08-07T16:30:13;2.30;;;1.17;;
46757;SDS011;32509;47.750;-3.396;2023-08-07T16:32:39;4.47;;;1.63;;
46757;SDS011;32509;47.750;-3.396;2023-08-07T16:35:05;2.92;;;1.50;;
46757;SDS011;32509;47.750;-3.396;2023-08-07T16:37:34;3.83;;;1.52;;
46757;SDS011;32509;47.750;-3.396;2023-08-07T16:39:59;4.43;;;2.00;;
46757;SDS011;32509;47.750;-3.396;2023-08-07T16:42:25;2.75;;;1.40;;
46757;SDS011;32509;47.750;-3.396;2023-08-07T16:44:51;3.65;;;1.30;;
46757;SDS011;32509;47.750;-3.396;2023-08-07T16:47:17;2.22;;;1.13;;
46757;SDS011;32509;47.750;-3.396;2023-08-07T16:49:43;2.88;;;1.13;;
46757;SDS011;32509;47.750;-3.396;2023-08-07T16:52:10;1.98;;;1.20;;
46757;SDS011;32509;47.750;-3.396;2023-08-07T16:54:36;5.07;;;1.40;;
46757;SDS011;32509;47.750;-3.396;2023-08-07T16:57:02;4.10;;;1.65;;
46757;SDS011;32509;47.750;-3.396;2023-08-07T16:59:29;5.45;;;1.80;;
46757;SDS011;32509;47.750;-3.396;2023-08-07T17:01:55;3.42;;;1.10;;
46757;SDS011;32509;47.750;-3.396;2023-08-07T17:04:21;1.13;;;1.00;;
46757;SDS011;32509;47.750;-3.396;2023-08-07T17:06:47;3.08;;;1.67;;
46757;SDS011;32509;47.750;-3.396;2023-08-07T17:09:13;1.67;;;1.23;;
46757;SDS011;32509;47.750;-3.396;2023-08-07T17:11:43;1.90;;;1.20;;
46757;SDS011;32509;47.750;-3.396;2023-08-07T17:14:10;3.58;;;1.58;;
46757;SDS011;32509;47.750;-3.396;2023-08-07T17:16:35;2.78;;;1.10;;
46757;SDS011;32509;47.750;-3.396;2023-08-07T17:19:01;2.05;;;1.10;;
46757;SDS011;32509;47.750;-3.396;2023-08-07T17:21:27;1.80;;;0.90;;
46757;SDS011;32509;47.750;-3.396;2023-08-07T17:23:54;3.55;;;0.95;;
46757;SDS011;32509;47.750;-3.396;2023-08-07T17:26:19;4.13;;;0.82;;
46757;SDS011;32509;47.750;-3.396;2023-08-07T17:28:47;2.00;;;0.98;;